sensor_id;sensor_type;location;lat;lon;timestamp;pressure;altitude;pressure_sealevel;temperature;humidity
11413;BME280;5762;43.256;26.960;2023-04-06T00:02:20;99288.05;;;4.67;100.00
11413;BME280;5762;43.256;26.960;2023-04-06T00:04:48;99294.22;;;4.60;100.00
11413;BME280;5762;43.256;26.960;2023-04-06T00:07:17;99284.56;;;4.64;100.00
11413;BME280;5762;43.256;26.960;2023-04-06T00:09:46;99284.83;;;4.78;100.00
11413;BME280;5762;43.256;26.960;2023-04-06T00:12:15;99276.26;;;4.66;100.00
11413;BME280;5762;43.256;26.960;2023-04-06T00:14:44;99283.76;;;4.66;100.00
11413;BME280;5762;43.256;26.960;2023-04-06T00:17:13;99280.53;;;4.80;100.00
11413;BME280;5762;43.256;26.960;2023-04-06T00:19:42;99280.55;;;4.69;100.00
11413;BME280;5762;43.256;26.960;2023-04-06T00:22:10;99273.05;;;4.61;100.00
11413;BME280;5762;43.256;26.960;2023-04-06T00:24:39;99275.45;;;4.55;100.00
11413;BME280;5762;43.256;26.960;2023-04-06T00:27:08;99054.69;;;3.00;100.00
11413;BME280;5762;43.256;26.960;2023-04-06T00:29:37;99271.98;;;4.52;100.00
11413;BME280;5762;43.256;26.960;2023-04-06T00:32:06;99266.07;;;4.68;100.00
11413;BME280;5762;43.256;26.960;2023-04-06T00:34:35;99259.36;;;4.73;100.00
11413;BME280;5762;43.256;26.960;2023-04-06T00:37:04;99259.64;;;4.69;100.00
11413;BME280;5762;43.256;26.960;2023-04-06T00:39:32;99255.61;;;4.71;100.00
11413;BME280;5762;43.256;26.960;2023-04-06T00:42:02;99252.39;;;4.77;100.00
11413;BME280;5762;43.256;26.960;2023-04-06T00:44:31;99256.16;;;4.66;100.00
11413;BME280;5762;43.256;26.960;2023-04-06T00:47:00;99247.09;;;4.34;100.00
11413;BME280;5762;43.256;26.960;2023-04-06T00:49:29;99248.97;;;4.28;100.00
11413;BME280;5762;43.256;26.960;2023-04-06T00:51:57;99247.36;;;4.17;100.00
11413;BME280;5762;43.256;26.960;2023-04-06T00:54:26;99240.69;;;4.15;100.00
11413;BME280;5762;43.256;26.960;2023-04-06T00:56:55;99250.59;;;4.12;100.00
11413;BME280;5762;43.256;26.960;2023-04-06T00:59:24;99242.83;;;4.02;100.00
11413;BME280;5762;43.256;26.960;2023-04-06T01:01:52;99245.52;;;4.15;100.00
11413;BME280;5762;43.256;26.960;2023-04-06T01:04:20;99248.16;;;4.23;100.00
11413;BME280;5762;43.256;26.960;2023-04-06T01:06:52;99241.22;;;4.09;100.00
11413;BME280;5762;43.256;26.960;2023-04-06T01:09:21;99240.95;;;4.11;100.00
11413;BME280;5762;43.256;26.960;2023-04-06T01:11:50;99243.09;;;4.06;100.00
11413;BME280;5762;43.256;26.960;2023-04-06T01:14:19;99229.97;;;4.04;100.00
11413;BME280;5762;43.256;26.960;2023-04-06T01:16:48;99237.73;;;4.03;100.00
11413;BME280;5762;43.256;26.960;2023-04-06T01:19:16;99234.26;;;4.03;100.00
11413;BME280;5762;43.256;26.960;2023-04-06T01:21:46;99223.82;;;4.14;100.00
11413;BME280;5762;43.256;26.960;2023-04-06T01:24:15;99227.84;;;4.12;100.00
11413;BME280;5762;43.256;26.960;2023-04-06T01:26:44;99221.38;;;4.25;100.00
11413;BME280;5762;43.256;26.960;2023-04-06T01:29:13;99221.92;;;4.32;100.00
11413;BME280;5762;43.256;26.960;2023-04-06T01:31:42;99222.45;;;4.37;100.00
11413;BME280;5762;43.256;26.960;2023-04-06T01:34:10;99218.44;;;4.37;100.00
11413;BME280;5762;43.256;26.960;2023-04-06T01:36:39;99222.45;;;4.40;100.00
11413;BME280;5762;43.256;26.960;2023-04-06T01:39:08;99220.58;;;4.40;100.00
11413;BME280;5762;43.256;26.960;2023-04-06T01:41:37;99214.14;;;4.44;100.00
11413;BME280;5762;43.256;26.960;2023-04-06T01:44:05;99222.72;;;4.25;100.00
11413;BME280;5762;43.256;26.960;2023-04-06T01:46:39;99219.50;;;4.26;100.00
11413;BME280;5762;43.256;26.960;2023-04-06T01:49:04;99212.54;;;4.35;100.00
11413;BME280;5762;43.256;26.960;2023-04-06T01:51:33;99214.68;;;4.41;100.00
11413;BME280;5762;43.256;26.960;2023-04-06T01:54:02;99208.25;;;4.36;100.00
11413;BME280;5762;43.256;26.960;2023-04-06T01:56:30;99213.62;;;4.29;100.00
11413;BME280;5762;43.256;26.960;2023-04-06T01:58:59;99208.53;;;4.17;100.00
11413;BME280;5762;43.256;26.960;2023-04-06T02:01:28;99202.91;;;4.16;100.00
11413;BME280;5762;43.256;26.960;2023-04-06T02:03:57;99206.38;;;4.24;100.00
11413;BME280;5762;43.256;26.960;2023-04-06T02:06:26;99174.02;;;3.95;100.00
11413;BME280;5762;43.256;26.960;2023-04-06T02:08:55;99201.06;;;4.14;100.00
11413;BME280;5762;43.256;26.960;2023-04-06T02:11:24;99212.02;;;3.92;100.00
11413;BME280;5762;43.256;26.960;2023-04-06T02:13:52;99209.35;;;3.95;100.00
11413;BME280;5762;43.256;26.960;2023-04-06T02:16:22;99209.08;;;3.89;100.00
11413;BME280;5762;43.256;26.960;2023-04-06T02:18:50;99214.70;;;3.90;100.00
11413;BME280;5762;43.256;26.960;2023-04-06T02:21:19;99202.39;;;3.91;100.00
11413;BME280;5762;43.256;26.960;2023-04-06T02:23:47;99209.61;;;3.68;100.00
11413;BME280;5762;43.256;26.960;2023-04-06T02:26:16;99198.91;;;3.73;100.00
11413;BME280;5762;43.256;26.960;2023-04-06T02:28:45;99192.48;;;3.69;100.00
11413;BME280;5762;43.256;26.960;2023-04-06T02:31:13;99199.44;;;3.67;100.00
11413;BME280;5762;43.256;26.960;2023-04-06T02:33:42;99202.37;;;3.61;100.00
11413;BME280;5762;43.256;26.960;2023-04-06T02:36:11;99200.77;;;3.60;100.00
11413;BME280;5762;43.256;26.960;2023-04-06T02:38:40;99205.05;;;3.61;100.00
11413;BME280;5762;43.256;26.960;2023-04-06T02:41:09;99190.31;;;3.51;100.00
11413;BME280;5762;43.256;26.960;2023-04-06T02:43:37;99195.66;;;3.41;100.00
11413;BME280;5762;43.256;26.960;2023-04-06T02:46:06;99203.43;;;3.45;100.00
11413;BME280;5762;43.256;26.960;2023-04-06T02:48:35;99198.08;;;3.42;100.00
11413;BME280;5762;43.256;26.960;2023-04-06T02:51:04;99192.70;;;3.34;100.00
11413;BME280;5762;43.256;26.960;2023-04-06T02:53:33;99198.05;;;3.34;100.00
11413;BME280;5762;43.256;26.960;2023-04-06T02:56:02;99196.45;;;3.39;100.00
11413;BME280;5762;43.256;26.960;2023-04-06T02:58:30;99194.59;;;3.39;100.00
11413;BME280;5762;43.256;26.960;2023-04-06T03:00:59;99199.91;;;3.31;100.00
11413;BME280;5762;43.256;26.960;2023-04-06T03:03:29;99198.05;;;3.32;100.00
11413;BME280;5762;43.256;26.960;2023-04-06T03:05:57;99200.47;;;3.39;100.00
11413;BME280;5762;43.256;26.960;2023-04-06T03:08:26;99199.41;;;3.40;100.00
11413;BME280;5762;43.256;26.960;2023-04-06T03:10:55;99189.50;;;3.35;100.00
11413;BME280;5762;43.256;26.960;2023-04-06T03:13:24;99192.69;;;3.32;100.00
11413;BME280;5762;43.256;26.960;2023-04-06T03:15:52;99192.96;;;3.33;100.00
11413;BME280;5762;43.256;26.960;2023-04-06T03:18:26;99196.45;;;3.36;100.00
11413;BME280;5762;43.256;26.960;2023-04-06T03:20:50;99196.47;;;3.56;100.00
11413;BME280;5762;43.256;26.960;2023-04-06T03:23:22;99204.21;;;3.48;100.00
11413;BME280;5762;43.256;26.960;2023-04-06T03:25:50;99207.16;;;3.49;100.00
11413;BME280;5762;43.256;26.960;2023-04-06T03:28:19;99207.71;;;3.56;100.00
11413;BME280;5762;43.256;26.960;2023-04-06T03:30:48;99202.38;;;3.66;100.00
11413;BME280;5762;43.256;26.960;2023-04-06T03:33:17;99210.94;;;3.65;100.00
11413;BME280;5762;43.256;26.960;2023-04-06T03:35:46;99205.34;;;3.80;100.00
11413;BME280;5762;43.256;26.960;2023-04-06T03:40:49;99207.47;;;3.88;100.00
11413;BME280;5762;43.256;26.960;2023-04-06T03:43:18;99205.32;;;3.82;100.00
11413;BME280;5762;43.256;26.960;2023-04-06T03:45:47;99211.23;;;3.74;100.00
11413;BME280;5762;43.256;26.960;2023-04-06T03:48:15;99205.33;;;3.90;100.00
11413;BME280;5762;43.256;26.960;2023-04-06T03:50:44;99210.69;;;3.92;100.00
11413;BME280;5762;43.256;26.960;2023-04-06T03:53:13;99212.82;;;3.88;100.00
11413;BME280;5762;43.256;26.960;2023-04-06T03:55:42;99219.52;;;3.90;100.00
11413;BME280;5762;43.256;26.960;2023-04-06T03:58:11;99219.23;;;3.84;100.00
11413;BME280;5762;43.256;26.960;2023-04-06T04:00:40;99214.18;;;3.80;100.00
11413;BME280;5762;43.256;26.960;2023-04-06T04:03:09;99221.39;;;3.87;100.00
11413;BME280;5762;43.256;26.960;2023-04-06T04:05:38;99221.92;;;3.87;100.00
11413;BME280;5762;43.256;26.960;2023-04-06T04:08:07;99218.97;;;3.83;100.00
11413;BME280;5762;43.256;26.960;2023-04-06T04:10:35;99222.47;;;3.79;100.00
11413;BME280;5762;43.256;26.960;2023-04-06T04:13:04;99229.16;;;3.76;100.00
11413;BME280;5762;43.256;26.960;2023-04-06T04:15:33;99231.58;;;3.80;100.00
11413;BME280;5762;43.256;26.960;2023-04-06T04:18:02;99228.08;;;3.90;100.00
11413;BME280;5762;43.256;26.960;2023-04-06T04:20:30;99232.36;;;3.83;100.00
11413;BME280;5762;43.256;26.960;2023-04-06T04:22:59;99230.49;;;3.91;100.00
11413;BME280;5762;43.256;26.960;2023-04-06T04:25:27;99230.78;;;4.05;100.00
11413;BME280;5762;43.256;26.960;2023-04-06T04:27:56;99233.72;;;4.03;100.00
11413;BME280;5762;43.256;26.960;2023-04-06T04:30:25;99231.04;;;3.98;100.00
11413;BME280;5762;43.256;26.960;2023-04-06T04:32:53;99227.83;;;4.01;100.00
11413;BME280;5762;43.256;26.960;2023-04-06T04:35:24;99228.09;;;3.92;100.00
11413;BME280;5762;43.256;26.960;2023-04-06T04:37:53;99231.04;;;3.98;100.00
11413;BME280;5762;43.256;26.960;2023-04-06T04:40:21;99231.31;;;4.04;100.00
11413;BME280;5762;43.256;26.960;2023-04-06T04:42:50;99219.54;;;4.16;100.00
11413;BME280;5762;43.256;26.960;2023-04-06T04:45:23;99219.23;;;4.22;100.00
11413;BME280;5762;43.256;26.960;2023-04-06T04:47:48;99221.38;;;4.20;100.00
11413;BME280;5762;43.256;26.960;2023-04-06T04:50:17;99226.48;;;4.01;100.00
11413;BME280;5762;43.256;26.960;2023-04-06T04:52:45;99220.34;;;4.09;100.00
11413;BME280;5762;43.256;26.960;2023-04-06T04:55:14;99219.00;;;4.11;100.00
11413;BME280;5762;43.256;26.960;2023-04-06T04:57:43;99217.13;;;4.14;100.00
11413;BME280;5762;43.256;26.960;2023-04-06T05:00:12;99217.63;;;4.24;100.00
11413;BME280;5762;43.256;26.960;2023-04-06T05:02:42;99220.31;;;4.34;100.00
11413;BME280;5762;43.256;26.960;2023-04-06T05:05:10;99220.04;;;4.38;100.00
11413;BME280;5762;43.256;26.960;2023-04-06T05:07:38;99212.53;;;4.45;100.00
11413;BME280;5762;43.256;26.960;2023-04-06T05:10:07;99221.64;;;4.44;100.00
11413;BME280;5762;43.256;26.960;2023-04-06T05:12:36;99220.84;;;4.41;100.00
11413;BME280;5762;43.256;26.960;2023-04-06T05:15:05;99217.63;;;4.44;100.00
11413;BME280;5762;43.256;26.960;2023-04-06T05:17:34;99205.50;;;4.64;100.00
11413;BME280;5762;43.256;26.960;2023-04-06T05:20:03;99210.60;;;4.63;100.00
11413;BME280;5762;43.256;26.960;2023-04-06T05:22:31;99212.75;;;4.59;100.00
11413;BME280;5762;43.256;26.960;2023-04-06T05:25:01;99210.06;;;4.61;100.00
11413;BME280;5762;43.256;26.960;2023-04-06T05:27:29;99202.81;;;4.69;100.00
11413;BME280;5762;43.256;26.960;2023-04-06T05:29:58;99211.39;;;4.69;100.00
11413;BME280;5762;43.256;26.960;2023-04-06T05:32:27;99210.56;;;4.79;100.00
11413;BME280;5762;43.256;26.960;2023-04-06T05:34:56;99207.02;;;4.91;100.00
11413;BME280;5762;43.256;26.960;2023-04-06T05:37:25;99205.65;;;5.01;100.00
11413;BME280;5762;43.256;26.960;2023-04-06T05:39:54;99199.97;;;5.15;100.00
11413;BME280;5762;43.256;26.960;2023-04-06T05:42:23;99192.13;;;5.21;100.00
11413;BME280;5762;43.256;26.960;2023-04-06T05:44:52;99196.75;;;5.13;100.00
11413;BME280;5762;43.256;26.960;2023-04-06T05:47:21;99190.30;;;5.17;100.00
11413;BME280;5762;43.256;26.960;2023-04-06T05:49:50;99192.61;;;5.33;100.00
11413;BME280;5762;43.256;26.960;2023-04-06T05:52:18;99196.94;;;5.27;100.00
11413;BME280;5762;43.256;26.960;2023-04-06T05:54:47;99191.92;;;5.15;100.00
11413;BME280;5762;43.256;26.960;2023-04-06T05:57:17;99193.20;;;5.20;100.00
11413;BME280;5762;43.256;26.960;2023-04-06T05:59:45;99183.47;;;5.37;100.00
11413;BME280;5762;43.256;26.960;2023-04-06T06:02:14;99181.02;;;5.43;100.00
11413;BME280;5762;43.256;26.960;2023-04-06T06:04:43;99181.02;;;5.43;100.00
11413;BME280;5762;43.256;26.960;2023-04-06T06:07:11;99177.74;;;5.54;100.00
11413;BME280;5762;43.256;26.960;2023-04-06T06:09:40;99177.11;;;5.64;100.00
11413;BME280;5762;43.256;26.960;2023-04-06T06:12:08;99169.23;;;5.78;100.00
11413;BME280;5762;43.256;26.960;2023-04-06T06:14:37;99171.50;;;5.61;100.00
11413;BME280;5762;43.256;26.960;2023-04-06T06:17:05;99164.36;;;5.49;100.00
11413;BME280;5762;43.256;26.960;2023-04-06T06:19:34;99168.09;;;5.53;100.00
11413;BME280;5762;43.256;26.960;2023-04-06T06:22:02;99162.72;;;5.53;100.00
11413;BME280;5762;43.256;26.960;2023-04-06T06:24:31;99162.02;;;5.34;100.00
11413;BME280;5762;43.256;26.960;2023-04-06T06:26:59;99160.44;;;5.28;100.00
11413;BME280;5762;43.256;26.960;2023-04-06T06:29:28;99167.25;;;5.13;100.00
11413;BME280;5762;43.256;26.960;2023-04-06T06:31:57;99166.46;;;5.10;100.00
11413;BME280;5762;43.256;26.960;2023-04-06T06:34:26;99160.73;;;5.24;100.00
11413;BME280;5762;43.256;26.960;2023-04-06T06:36:55;99164.83;;;5.17;100.00
11413;BME280;5762;43.256;26.960;2023-04-06T06:39:24;99161.25;;;5.26;100.00
11413;BME280;5762;43.256;26.960;2023-04-06T06:41:52;99152.21;;;5.17;100.00
11413;BME280;5762;43.256;26.960;2023-04-06T06:44:21;99140.59;;;5.29;100.00
11413;BME280;5762;43.256;26.960;2023-04-06T06:46:49;99155.60;;;5.30;100.00
11413;BME280;5762;43.256;26.960;2023-04-06T06:49:18;99151.97;;;5.11;100.00
11413;BME280;5762;43.256;26.960;2023-04-06T06:51:47;99156.70;;;5.27;100.00
11413;BME280;5762;43.256;26.960;2023-04-06T06:54:16;99151.06;;;5.26;100.00
11413;BME280;5762;43.256;26.960;2023-04-06T06:56:45;99149.39;;;5.37;100.00
11413;BME280;5762;43.256;26.960;2023-04-06T06:59:14;99155.20;;;5.52;100.00
11413;BME280;5762;43.256;26.960;2023-04-06T07:01:43;99142.22;;;5.64;100.00
11413;BME280;5762;43.256;26.960;2023-04-06T07:04:11;99153.05;;;5.54;100.00
11413;BME280;5762;43.256;26.960;2023-04-06T07:06:39;99152.43;;;5.62;100.00
11413;BME280;5762;43.256;26.960;2023-04-06T07:09:08;99155.36;;;5.66;100.00
11413;BME280;5762;43.256;26.960;2023-04-06T07:11:36;99136.81;;;5.69;100.00
11413;BME280;5762;43.256;26.960;2023-04-06T07:14:05;99135.26;;;5.61;100.00
11413;BME280;5762;43.256;26.960;2023-04-06T07:16:33;99151.72;;;5.52;100.00
11413;BME280;5762;43.256;26.960;2023-04-06T07:19:01;99132.82;;;5.64;100.00
11413;BME280;5762;43.256;26.960;2023-04-06T07:21:29;99160.53;;;5.55;100.00
11413;BME280;5762;43.256;26.960;2023-04-06T07:23:58;99164.55;;;5.55;100.00
11413;BME280;5762;43.256;26.960;2023-04-06T07:26:27;99167.19;;;5.62;100.00
11413;BME280;5762;43.256;26.960;2023-04-06T07:28:56;99166.09;;;5.66;100.00
11413;BME280;5762;43.256;26.960;2023-04-06T07:31:25;99160.71;;;5.68;100.00
11413;BME280;5762;43.256;26.960;2023-04-06T07:33:53;99166.69;;;5.58;100.00
11413;BME280;5762;43.256;26.960;2023-04-06T07:36:22;99168.43;;;5.78;100.00
11413;BME280;5762;43.256;26.960;2023-04-06T07:38:51;99175.44;;;5.73;100.00
11413;BME280;5762;43.256;26.960;2023-04-06T07:41:19;99163.72;;;5.59;100.00
11413;BME280;5762;43.256;26.960;2023-04-06T07:43:48;99172.71;;;5.42;100.00
11413;BME280;5762;43.256;26.960;2023-04-06T07:46:17;99176.45;;;5.44;100.00
11413;BME280;5762;43.256;26.960;2023-04-06T07:48:46;99177.66;;;5.64;100.00
11413;BME280;5762;43.256;26.960;2023-04-06T07:51:14;99178.08;;;5.81;100.00
11413;BME280;5762;43.256;26.960;2023-04-06T07:53:46;99182.47;;;5.67;100.00
11413;BME280;5762;43.256;26.960;2023-04-06T07:56:14;99185.28;;;5.49;100.00
11413;BME280;5762;43.256;26.960;2023-04-06T07:58:43;99180.36;;;5.59;100.00
11413;BME280;5762;43.256;26.960;2023-04-06T08:01:12;99178.73;;;5.63;100.00
11413;BME280;5762;43.256;26.960;2023-04-06T08:03:41;99168.19;;;5.74;100.00
11413;BME280;5762;43.256;26.960;2023-04-06T08:06:10;99173.48;;;5.84;100.00
11413;BME280;5762;43.256;26.960;2023-04-06T08:08:39;99173.52;;;5.79;100.00
11413;BME280;5762;43.256;26.960;2023-04-06T08:17:22;99177.42;;;5.97;100.00
11413;BME280;5762;43.256;26.960;2023-04-06T08:22:54;99170.05;;;6.13;100.00
11413;BME280;5762;43.256;26.960;2023-04-06T08:25:22;99159.06;;;6.09;100.00
11413;BME280;5762;43.256;26.960;2023-04-06T08:27:51;99171.83;;;5.91;100.00
11413;BME280;5762;43.256;26.960;2023-04-06T08:30:19;99172.75;;;6.10;100.00
11413;BME280;5762;43.256;26.960;2023-04-06T08:32:47;99173.77;;;6.17;100.00
11413;BME280;5762;43.256;26.960;2023-04-06T08:35:16;99174.47;;;6.25;100.00
11413;BME280;5762;43.256;26.960;2023-04-06T08:37:45;99169.45;;;6.45;100.00
11413;BME280;5762;43.256;26.960;2023-04-06T08:40:14;99171.96;;;6.60;100.00
11413;BME280;5762;43.256;26.960;2023-04-06T08:42:44;99177.47;;;6.73;100.00
11413;BME280;5762;43.256;26.960;2023-04-06T08:45:13;99175.70;;;6.88;100.00
11413;BME280;5762;43.256;26.960;2023-04-06T08:47:42;99180.30;;;6.85;100.00
11413;BME280;5762;43.256;26.960;2023-04-06T08:50:11;99167.88;;;6.41;100.00
11413;BME280;5762;43.256;26.960;2023-04-06T08:52:40;99177.23;;;6.46;100.00
11413;BME280;5762;43.256;26.960;2023-04-06T08:55:10;99163.53;;;6.45;100.00
11413;BME280;5762;43.256;26.960;2023-04-06T08:57:39;99175.33;;;6.49;100.00
11413;BME280;5762;43.256;26.960;2023-04-06T09:00:09;99179.45;;;6.39;100.00
11413;BME280;5762;43.256;26.960;2023-04-06T09:02:39;99174.78;;;6.50;100.00
11413;BME280;5762;43.256;26.960;2023-04-06T09:05:08;99172.38;;;6.48;100.00
11413;BME280;5762;43.256;26.960;2023-04-06T09:07:37;99176.64;;;6.52;100.00
11413;BME280;5762;43.256;26.960;2023-04-06T09:10:06;99183.25;;;6.35;100.00
11413;BME280;5762;43.256;26.960;2023-04-06T09:12:35;99173.77;;;6.43;100.00
11413;BME280;5762;43.256;26.960;2023-04-06T09:15:04;99180.57;;;6.59;100.00
11413;BME280;5762;43.256;26.960;2023-04-06T09:17:33;99167.55;;;6.48;100.00
11413;BME280;5762;43.256;26.960;2023-04-06T09:20:02;99172.13;;;6.47;100.00
11413;BME280;5762;43.256;26.960;2023-04-06T09:22:37;99172.00;;;6.31;100.00
11413;BME280;5762;43.256;26.960;2023-04-06T09:25:09;99171.13;;;6.38;100.00
11413;BME280;5762;43.256;26.960;2023-04-06T09:27:38;99164.88;;;6.45;100.00
11413;BME280;5762;43.256;26.960;2023-04-06T09:30:10;99171.50;;;6.55;100.00
11413;BME280;5762;43.256;26.960;2023-04-06T09:32:49;99169.81;;;6.59;100.00
11413;BME280;5762;43.256;26.960;2023-04-06T09:35:19;99164.91;;;6.90;100.00
11413;BME280;5762;43.256;26.960;2023-04-06T09:37:48;99164.41;;;7.07;100.00
11413;BME280;5762;43.256;26.960;2023-04-06T09:40:16;99174.20;;;6.98;100.00
11413;BME280;5762;43.256;26.960;2023-04-06T09:42:46;99165.34;;;6.97;100.00
11413;BME280;5762;43.256;26.960;2023-04-06T09:45:15;99168.13;;;7.11;100.00
11413;BME280;5762;43.256;26.960;2023-04-06T09:47:44;99162.80;;;7.27;100.00
11413;BME280;5762;43.256;26.960;2023-04-06T09:50:13;99159.66;;;7.39;100.00
11413;BME280;5762;43.256;26.960;2023-04-06T09:55:20;99166.62;;;7.61;100.00
11413;BME280;5762;43.256;26.960;2023-04-06T09:57:45;99164.77;;;7.59;100.00
11413;BME280;5762;43.256;26.960;2023-04-06T10:00:14;99167.24;;;7.72;100.00
11413;BME280;5762;43.256;26.960;2023-04-06T10:02:51;99162.13;;;7.89;100.00
11413;BME280;5762;43.256;26.960;2023-04-06T10:05:22;99166.54;;;7.83;100.00
11413;BME280;5762;43.256;26.960;2023-04-06T10:07:50;99152.02;;;7.81;100.00
11413;BME280;5762;43.256;26.960;2023-04-06T10:10:19;99152.80;;;7.98;100.00
11413;BME280;5762;43.256;26.960;2023-04-06T10:12:47;99153.73;;;8.23;100.00
11413;BME280;5762;43.256;26.960;2023-04-06T10:15:16;99161.48;;;8.57;100.00
11413;BME280;5762;43.256;26.960;2023-04-06T10:17:44;99145.59;;;8.42;100.00
11413;BME280;5762;43.256;26.960;2023-04-06T10:20:16;99148.55;;;8.27;100.00
11413;BME280;5762;43.256;26.960;2023-04-06T10:25:16;99152.64;;;8.54;100.00
11413;BME280;5762;43.256;26.960;2023-04-06T10:27:45;99157.42;;;8.44;100.00
11413;BME280;5762;43.256;26.960;2023-04-06T10:30:14;99154.84;;;8.52;100.00
11413;BME280;5762;43.256;26.960;2023-04-06T10:32:43;99158.14;;;8.33;100.00
11413;BME280;5762;43.256;26.960;2023-04-06T10:35:12;99153.28;;;8.49;100.00
11413;BME280;5762;43.256;26.960;2023-04-06T10:38:01;99151.19;;;8.46;100.00
11413;BME280;5762;43.256;26.960;2023-04-06T10:40:29;99154.42;;;8.45;100.00
11413;BME280;5762;43.256;26.960;2023-04-06T10:43:08;99157.23;;;8.24;100.00
11413;BME280;5762;43.256;26.960;2023-04-06T10:45:36;99154.44;;;8.29;100.00
11413;BME280;5762;43.256;26.960;2023-04-06T10:48:17;99157.44;;;8.11;100.00
11413;BME280;5762;43.256;26.960;2023-04-06T10:50:48;99150.20;;;8.09;100.00
11413;BME280;5762;43.256;26.960;2023-04-06T10:53:27;99156.42;;;8.23;100.00
11413;BME280;5762;43.256;26.960;2023-04-06T10:55:52;99146.91;;;8.12;100.00
11413;BME280;5762;43.256;26.960;2023-04-06T10:58:24;99151.67;;;8.18;100.00
11413;BME280;5762;43.256;26.960;2023-04-06T11:00:50;99152.68;;;8.22;100.00
11413;BME280;5762;43.256;26.960;2023-04-06T11:03:19;99149.38;;;8.41;100.00
11413;BME280;5762;43.256;26.960;2023-04-06T11:05:48;99135.78;;;8.32;100.00
11413;BME280;5762;43.256;26.960;2023-04-06T11:10:52;99137.34;;;8.36;100.00
11413;BME280;5762;43.256;26.960;2023-04-06T11:13:20;99130.91;;;8.48;100.00
11413;BME280;5762;43.256;26.960;2023-04-06T11:15:49;99134.00;;;8.69;100.00
11413;BME280;5762;43.256;26.960;2023-04-06T11:18:18;99129.39;;;8.97;100.00
11413;BME280;5762;43.256;26.960;2023-04-06T11:20:49;99128.55;;;9.10;100.00
11413;BME280;5762;43.256;26.960;2023-04-06T11:23:27;99121.70;;;9.15;100.00
11413;BME280;5762;43.256;26.960;2023-04-06T11:25:51;99118.89;;;9.20;100.00
11413;BME280;5762;43.256;26.960;2023-04-06T11:28:20;99122.47;;;9.29;100.00
11413;BME280;5762;43.256;26.960;2023-04-06T11:30:49;99115.69;;;9.18;100.00
11413;BME280;5762;43.256;26.960;2023-04-06T11:33:22;99098.31;;;8.99;100.00
11413;BME280;5762;43.256;26.960;2023-04-06T11:35:48;99094.98;;;8.78;100.00
11413;BME280;5762;43.256;26.960;2023-04-06T11:38:18;99113.16;;;8.86;100.00
11413;BME280;5762;43.256;26.960;2023-04-06T11:40:47;99103.16;;;9.11;100.00
11413;BME280;5762;43.256;26.960;2023-04-06T11:43:17;99107.63;;;9.29;100.00
11413;BME280;5762;43.256;26.960;2023-04-06T11:45:45;99118.16;;;9.39;100.00
11413;BME280;5762;43.256;26.960;2023-04-06T11:48:18;99108.79;;;9.48;100.00
11413;BME280;5762;43.256;26.960;2023-04-06T11:50:47;99111.81;;;9.58;100.00
11413;BME280;5762;43.256;26.960;2023-04-06T11:53:15;99109.59;;;9.49;100.00
11413;BME280;5762;43.256;26.960;2023-04-06T11:55:43;99098.11;;;9.54;100.00
11413;BME280;5762;43.256;26.960;2023-04-06T11:58:12;99100.69;;;9.48;100.00
11413;BME280;5762;43.256;26.960;2023-04-06T12:00:43;99112.73;;;9.64;100.00
11413;BME280;5762;43.256;26.960;2023-04-06T12:03:11;99103.38;;;9.82;100.00
11413;BME280;5762;43.256;26.960;2023-04-06T12:05:39;99093.48;;;9.88;100.00
11413;BME280;5762;43.256;26.960;2023-04-06T12:08:08;99099.56;;;9.94;100.00
11413;BME280;5762;43.256;26.960;2023-04-06T12:10:36;99090.05;;;9.85;100.00
11413;BME280;5762;43.256;26.960;2023-04-06T12:13:05;99093.13;;;9.81;100.00
11413;BME280;5762;43.256;26.960;2023-04-06T12:15:34;99093.67;;;9.81;100.00
11413;BME280;5762;43.256;26.960;2023-04-06T12:18:03;99099.63;;;9.91;100.00
11413;BME280;5762;43.256;26.960;2023-04-06T12:20:32;99091.84;;;10.40;100.00
11413;BME280;5762;43.256;26.960;2023-04-06T12:23:01;99092.95;;;10.59;100.00
11413;BME280;5762;43.256;26.960;2023-04-06T12:25:29;99096.00;;;10.38;100.00
11413;BME280;5762;43.256;26.960;2023-04-06T12:27:58;99091.39;;;10.47;100.00
11413;BME280;5762;43.256;26.960;2023-04-06T12:30:27;99091.67;;;10.57;100.00
11413;BME280;5762;43.256;26.960;2023-04-06T12:32:56;99083.80;;;10.95;100.00
11413;BME280;5762;43.256;26.960;2023-04-06T12:35:33;99089.08;;;11.08;100.00
11413;BME280;5762;43.256;26.960;2023-04-06T12:38:02;99093.42;;;10.90;100.00
11413;BME280;5762;43.256;26.960;2023-04-06T12:40:27;99088.13;;;10.67;100.00
11413;BME280;5762;43.256;26.960;2023-04-06T12:42:55;99085.42;;;10.39;100.00
11413;BME280;5762;43.256;26.960;2023-04-06T12:45:24;99082.38;;;10.40;100.00
11413;BME280;5762;43.256;26.960;2023-04-06T12:47:53;99081.67;;;10.37;100.00
11413;BME280;5762;43.256;26.960;2023-04-06T12:50:21;99088.75;;;10.64;100.00
11413;BME280;5762;43.256;26.960;2023-04-06T12:52:51;99091.92;;;11.12;100.00
11413;BME280;5762;43.256;26.960;2023-04-06T12:55:20;99098.22;;;11.45;100.00
11413;BME280;5762;43.256;26.960;2023-04-06T12:57:49;99103.81;;;11.31;100.00
11413;BME280;5762;43.256;26.960;2023-04-06T13:00:17;99104.30;;;10.70;100.00
11413;BME280;5762;43.256;26.960;2023-04-06T13:02:47;99087.20;;;10.89;100.00
11413;BME280;5762;43.256;26.960;2023-04-06T13:05:15;99094.00;;;11.15;100.00
11413;BME280;5762;43.256;26.960;2023-04-06T13:07:45;99100.00;;;11.40;100.00
11413;BME280;5762;43.256;26.960;2023-04-06T13:10:13;99098.95;;;11.30;100.00
11413;BME280;5762;43.256;26.960;2023-04-06T13:12:42;99093.30;;;11.29;100.00
11413;BME280;5762;43.256;26.960;2023-04-06T13:15:11;99086.36;;;11.17;100.00
11413;BME280;5762;43.256;26.960;2023-04-06T13:17:39;99093.78;;;10.77;100.00
11413;BME280;5762;43.256;26.960;2023-04-06T13:20:10;99089.55;;;10.65;100.00
11413;BME280;5762;43.256;26.960;2023-04-06T13:22:39;99095.77;;;10.65;100.00
11413;BME280;5762;43.256;26.960;2023-04-06T13:25:08;99091.22;;;10.63;100.00
11413;BME280;5762;43.256;26.960;2023-04-06T13:27:39;99086.13;;;10.62;100.00
11413;BME280;5762;43.256;26.960;2023-04-06T13:30:09;99082.27;;;10.54;100.00